sensor_id;sensor_type;location;lat;lon;timestamp;P1;durP1;ratioP1;P2;durP2;ratioP2
58460;SDS011;45558;37.752;-97.822;2024-02-26T00:01:36;7.30;;;2.67;;
58460;SDS011;45558;37.752;-97.822;2024-02-26T00:04:02;6.63;;;2.30;;
58460;SDS011;45558;37.752;-97.822;2024-02-26T00:06:29;6.57;;;2.15;;
58460;SDS011;45558;37.752;-97.822;2024-02-26T00:08:55;9.75;;;2.67;;
58460;SDS011;45558;37.752;-97.822;2024-02-26T00:11:21;5.03;;;1.90;;
58460;SDS011;45558;37.752;-97.822;2024-02-26T00:13:46;10.60;;;2.65;;
58460;SDS011;45558;37.752;-97.822;2024-02-26T00:16:12;2.92;;;1.67;;
58460;SDS011;45558;37.752;-97.822;2024-02-26T00:18:38;4.38;;;1.83;;
58460;SDS011;45558;37.752;-97.822;2024-02-26T00:21:03;4.63;;;1.80;;
58460;SDS011;45558;37.752;-97.822;2024-02-26T00:23:29;4.32;;;2.35;;
58460;SDS011;45558;37.752;-97.822;2024-02-26T00:25:55;6.70;;;2.00;;
58460;SDS011;45558;37.752;-97.822;2024-02-26T00:28:21;3.53;;;2.22;;
58460;SDS011;45558;37.752;-97.822;2024-02-26T00:30:47;7.03;;;1.95;;
58460;SDS011;45558;37.752;-97.822;2024-02-26T00:33:14;3.00;;;1.80;;
58460;SDS011;45558;37.752;-97.822;2024-02-26T00:35:41;6.82;;;2.30;;
58460;SDS011;45558;37.752;-97.822;2024-02-26T00:38:07;4.47;;;1.90;;
58460;SDS011;45558;37.752;-97.822;2024-02-26T00:40:33;5.28;;;1.77;;
58460;SDS011;45558;37.752;-97.822;2024-02-26T00:43:00;5.30;;;2.00;;
58460;SDS011;45558;37.752;-97.822;2024-02-26T00:45:26;5.22;;;1.90;;
58460;SDS011;45558;37.752;-97.822;2024-02-26T00:47:52;5.22;;;1.90;;
58460;SDS011;45558;37.752;-97.822;2024-02-26T00:50:18;4.60;;;1.77;;
58460;SDS011;45558;37.752;-97.822;2024-02-26T00:52:43;4.75;;;1.77;;
58460;SDS011;45558;37.752;-97.822;2024-02-26T00:55:09;8.02;;;2.72;;
58460;SDS011;45558;37.752;-97.822;2024-02-26T01:03:22;2.65;;;1.98;;
58460;SDS011;45558;37.752;-97.822;2024-02-26T01:05:48;4.15;;;1.75;;
58460;SDS011;45558;37.752;-97.822;2024-02-26T01:08:13;2.40;;;1.67;;
58460;SDS011;45558;37.752;-97.822;2024-02-26T01:10:39;4.13;;;1.92;;
58460;SDS011;45558;37.752;-97.822;2024-02-26T01:13:05;5.00;;;2.58;;
58460;SDS011;45558;37.752;-97.822;2024-02-26T01:15:32;7.35;;;1.88;;
58460;SDS011;45558;37.752;-97.822;2024-02-26T01:17:58;5.85;;;1.90;;
58460;SDS011;45558;37.752;-97.822;2024-02-26T01:20:24;2.90;;;1.75;;
58460;SDS011;45558;37.752;-97.822;2024-02-26T01:22:49;3.42;;;2.15;;
58460;SDS011;45558;37.752;-97.822;2024-02-26T01:25:15;7.85;;;2.17;;
58460;SDS011;45558;37.752;-97.822;2024-02-26T01:27:42;6.20;;;2.25;;
58460;SDS011;45558;37.752;-97.822;2024-02-26T01:30:09;4.65;;;1.80;;
58460;SDS011;45558;37.752;-97.822;2024-02-26T01:32:35;4.60;;;1.75;;
58460;SDS011;45558;37.752;-97.822;2024-02-26T01:35:02;7.60;;;2.22;;
58460;SDS011;45558;37.752;-97.822;2024-02-26T01:37:35;3.88;;;2.45;;
58460;SDS011;45558;37.752;-97.822;2024-02-26T01:40:01;7.25;;;2.20;;
58460;SDS011;45558;37.752;-97.822;2024-02-26T01:42:29;5.13;;;1.90;;
58460;SDS011;45558;37.752;-97.822;2024-02-26T01:44:58;5.85;;;2.90;;
58460;SDS011;45558;37.752;-97.822;2024-02-26T01:47:24;6.53;;;1.83;;
58460;SDS011;45558;37.752;-97.822;2024-02-26T01:49:50;4.70;;;1.80;;
58460;SDS011;45558;37.752;-97.822;2024-02-26T01:52:16;9.02;;;2.63;;
58460;SDS011;45558;37.752;-97.822;2024-02-26T01:54:42;8.30;;;3.65;;
58460;SDS011;45558;37.752;-97.822;2024-02-26T01:57:10;3.30;;;1.92;;
58460;SDS011;45558;37.752;-97.822;2024-02-26T01:59:36;5.35;;;2.13;;
58460;SDS011;45558;37.752;-97.822;2024-02-26T02:02:03;3.10;;;1.90;;
58460;SDS011;45558;37.752;-97.822;2024-02-26T02:04:31;6.10;;;1.92;;
58460;SDS011;45558;37.752;-97.822;2024-02-26T02:10:19;5.00;;;2.08;;
58460;SDS011;45558;37.752;-97.822;2024-02-26T02:12:48;3.38;;;2.40;;
58460;SDS011;45558;37.752;-97.822;2024-02-26T02:15:14;4.70;;;1.80;;
58460;SDS011;45558;37.752;-97.822;2024-02-26T02:17:39;5.63;;;1.88;;
58460;SDS011;45558;37.752;-97.822;2024-02-26T02:20:09;5.45;;;2.20;;
58460;SDS011;45558;37.752;-97.822;2024-02-26T02:22:49;5.22;;;1.80;;
58460;SDS011;45558;37.752;-97.822;2024-02-26T02:25:15;11.02;;;1.67;;
58460;SDS011;45558;37.752;-97.822;2024-02-26T02:27:41;5.78;;;2.75;;
58460;SDS011;45558;37.752;-97.822;2024-02-26T02:30:08;5.00;;;2.33;;
58460;SDS011;45558;37.752;-97.822;2024-02-26T02:32:34;4.72;;;2.03;;
58460;SDS011;45558;37.752;-97.822;2024-02-26T02:35:02;5.20;;;1.50;;
58460;SDS011;45558;37.752;-97.822;2024-02-26T02:37:28;6.03;;;1.88;;
58460;SDS011;45558;37.752;-97.822;2024-02-26T02:39:54;3.53;;;2.00;;
58460;SDS011;45558;37.752;-97.822;2024-02-26T02:42:20;4.03;;;1.88;;
58460;SDS011;45558;37.752;-97.822;2024-02-26T02:44:45;11.88;;;2.20;;
58460;SDS011;45558;37.752;-97.822;2024-02-26T02:47:11;4.85;;;1.70;;
58460;SDS011;45558;37.752;-97.822;2024-02-26T02:49:37;5.40;;;1.77;;
58460;SDS011;45558;37.752;-97.822;2024-02-26T02:52:04;3.80;;;1.50;;
58460;SDS011;45558;37.752;-97.822;2024-02-26T02:54:30;4.75;;;1.88;;
58460;SDS011;45558;37.752;-97.822;2024-02-26T02:56:58;2.45;;;1.30;;
58460;SDS011;45558;37.752;-97.822;2024-02-26T02:59:24;6.00;;;1.42;;
58460;SDS011;45558;37.752;-97.822;2024-02-26T03:01:52;2.70;;;1.30;;
58460;SDS011;45558;37.752;-97.822;2024-02-26T03:04:18;6.18;;;1.55;;
58460;SDS011;45558;37.752;-97.822;2024-02-26T03:06:44;7.35;;;2.67;;
58460;SDS011;45558;37.752;-97.822;2024-02-26T03:09:10;5.43;;;1.10;;
58460;SDS011;45558;37.752;-97.822;2024-02-26T03:11:35;5.72;;;1.17;;
58460;SDS011;45558;37.752;-97.822;2024-02-26T03:14:01;3.47;;;1.42;;
58460;SDS011;45558;37.752;-97.822;2024-02-26T03:16:27;5.70;;;1.15;;
58460;SDS011;45558;37.752;-97.822;2024-02-26T03:18:53;3.13;;;1.33;;
58460;SDS011;45558;37.752;-97.822;2024-02-26T03:21:18;3.08;;;1.10;;
58460;SDS011;45558;37.752;-97.822;2024-02-26T03:23:44;3.65;;;1.00;;
58460;SDS011;45558;37.752;-97.822;2024-02-26T03:26:11;3.67;;;1.10;;
58460;SDS011;45558;37.752;-97.822;2024-02-26T03:28:39;7.95;;;1.02;;
58460;SDS011;45558;37.752;-97.822;2024-02-26T03:31:05;3.17;;;1.10;;
58460;SDS011;45558;37.752;-97.822;2024-02-26T03:33:31;5.07;;;1.30;;
58460;SDS011;45558;37.752;-97.822;2024-02-26T03:35:57;4.28;;;1.10;;
58460;SDS011;45558;37.752;-97.822;2024-02-26T03:38:22;2.08;;;1.00;;
58460;SDS011;45558;37.752;-97.822;2024-02-26T03:40:48;4.22;;;1.17;;
58460;SDS011;45558;37.752;-97.822;2024-02-26T03:43:14;2.25;;;1.10;;
58460;SDS011;45558;37.752;-97.822;2024-02-26T03:45:40;6.75;;;1.10;;
58460;SDS011;45558;37.752;-97.822;2024-02-26T03:48:06;6.50;;;1.30;;
58460;SDS011;45558;37.752;-97.822;2024-02-26T03:50:31;8.00;;;1.30;;
58460;SDS011;45558;37.752;-97.822;2024-02-26T03:52:57;6.03;;;1.75;;
58460;SDS011;45558;37.752;-97.822;2024-02-26T03:55:23;4.97;;;1.27;;
58460;SDS011;45558;37.752;-97.822;2024-02-26T03:57:52;3.05;;;1.13;;
58460;SDS011;45558;37.752;-97.822;2024-02-26T04:00:18;5.05;;;1.30;;
58460;SDS011;45558;37.752;-97.822;2024-02-26T04:02:46;6.85;;;1.50;;
58460;SDS011;45558;37.752;-97.822;2024-02-26T04:05:13;5.22;;;1.00;;
58460;SDS011;45558;37.752;-97.822;2024-02-26T04:07:39;3.67;;;0.90;;
58460;SDS011;45558;37.752;-97.822;2024-02-26T04:10:08;4.60;;;1.23;;
58460;SDS011;45558;37.752;-97.822;2024-02-26T04:12:40;3.17;;;1.13;;
58460;SDS011;45558;37.752;-97.822;2024-02-26T04:15:09;5.20;;;1.08;;
58460;SDS011;45558;37.752;-97.822;2024-02-26T04:17:36;3.35;;;1.42;;
58460;SDS011;45558;37.752;-97.822;2024-02-26T04:20:03;2.20;;;0.90;;
58460;SDS011;45558;37.752;-97.822;2024-02-26T04:22:30;4.55;;;1.20;;
58460;SDS011;45558;37.752;-97.822;2024-02-26T04:24:57;3.60;;;0.82;;
58460;SDS011;45558;37.752;-97.822;2024-02-26T04:27:22;2.88;;;1.33;;
58460;SDS011;45558;37.752;-97.822;2024-02-26T04:29:48;3.72;;;1.25;;
58460;SDS011;45558;37.752;-97.822;2024-02-26T04:32:14;4.55;;;1.10;;
58460;SDS011;45558;37.752;-97.822;2024-02-26T04:34:39;3.65;;;1.30;;
58460;SDS011;45558;37.752;-97.822;2024-02-26T04:37:06;5.90;;;1.35;;
58460;SDS011;45558;37.752;-97.822;2024-02-26T04:39:32;2.53;;;0.98;;
58460;SDS011;45558;37.752;-97.822;2024-02-26T04:41:58;5.05;;;1.55;;
58460;SDS011;45558;37.752;-97.822;2024-02-26T04:44:23;7.93;;;1.50;;
58460;SDS011;45558;37.752;-97.822;2024-02-26T04:46:49;5.97;;;1.40;;
58460;SDS011;45558;37.752;-97.822;2024-02-26T04:49:15;4.70;;;1.30;;
58460;SDS011;45558;37.752;-97.822;2024-02-26T04:51:41;4.60;;;1.27;;
58460;SDS011;45558;37.752;-97.822;2024-02-26T04:57:28;6.43;;;1.20;;
58460;SDS011;45558;37.752;-97.822;2024-02-26T04:59:53;8.43;;;1.73;;
58460;SDS011;45558;37.752;-97.822;2024-02-26T05:02:19;8.02;;;1.17;;
58460;SDS011;45558;37.752;-97.822;2024-02-26T05:04:45;6.30;;;1.00;;
58460;SDS011;45558;37.752;-97.822;2024-02-26T05:07:10;3.47;;;0.80;;
58460;SDS011;45558;37.752;-97.822;2024-02-26T05:09:37;1.70;;;1.20;;
58460;SDS011;45558;37.752;-97.822;2024-02-26T05:12:03;7.90;;;1.50;;
58460;SDS011;45558;37.752;-97.822;2024-02-26T05:14:29;7.00;;;1.20;;
58460;SDS011;45558;37.752;-97.822;2024-02-26T05:16:54;5.95;;;1.00;;
58460;SDS011;45558;37.752;-97.822;2024-02-26T05:19:21;5.50;;;0.80;;
58460;SDS011;45558;37.752;-97.822;2024-02-26T05:21:47;9.30;;;1.13;;
58460;SDS011;45558;37.752;-97.822;2024-02-26T05:24:15;2.20;;;0.80;;
58460;SDS011;45558;37.752;-97.822;2024-02-26T05:26:42;2.53;;;0.80;;
58460;SDS011;45558;37.752;-97.822;2024-02-26T05:29:09;8.27;;;1.30;;
58460;SDS011;45558;37.752;-97.822;2024-02-26T05:31:34;5.32;;;0.90;;
58460;SDS011;45558;37.752;-97.822;2024-02-26T05:34:00;6.78;;;1.00;;
58460;SDS011;45558;37.752;-97.822;2024-02-26T05:36:26;9.63;;;0.93;;
58460;SDS011;45558;37.752;-97.822;2024-02-26T05:38:53;5.07;;;0.70;;
58460;SDS011;45558;37.752;-97.822;2024-02-26T05:41:19;6.00;;;1.20;;
58460;SDS011;45558;37.752;-97.822;2024-02-26T05:43:51;11.63;;;1.23;;
58460;SDS011;45558;37.752;-97.822;2024-02-26T05:46:18;12.07;;;1.55;;
58460;SDS011;45558;37.752;-97.822;2024-02-26T05:48:49;5.43;;;1.55;;
58460;SDS011;45558;37.752;-97.822;2024-02-26T05:51:16;5.55;;;0.75;;
58460;SDS011;45558;37.752;-97.822;2024-02-26T05:53:41;8.07;;;0.90;;
58460;SDS011;45558;37.752;-97.822;2024-02-26T05:56:07;1.88;;;0.70;;
58460;SDS011;45558;37.752;-97.822;2024-02-26T05:58:33;2.22;;;0.80;;
58460;SDS011;45558;37.752;-97.822;2024-02-26T06:00:59;4.35;;;0.82;;
58460;SDS011;45558;37.752;-97.822;2024-02-26T06:03:25;4.03;;;0.82;;
58460;SDS011;45558;37.752;-97.822;2024-02-26T06:05:52;5.03;;;0.80;;
58460;SDS011;45558;37.752;-97.822;2024-02-26T06:08:18;8.18;;;0.77;;
58460;SDS011;45558;37.752;-97.822;2024-02-26T06:10:43;3.30;;;0.65;;
58460;SDS011;45558;37.752;-97.822;2024-02-26T06:13:09;5.82;;;0.77;;
58460;SDS011;45558;37.752;-97.822;2024-02-26T06:15:35;6.00;;;2.15;;
58460;SDS011;45558;37.752;-97.822;2024-02-26T06:18:01;8.27;;;1.08;;
58460;SDS011;45558;37.752;-97.822;2024-02-26T06:20:27;5.60;;;0.60;;
58460;SDS011;45558;37.752;-97.822;2024-02-26T06:22:52;6.13;;;0.80;;
58460;SDS011;45558;37.752;-97.822;2024-02-26T06:25:18;6.50;;;0.93;;
58460;SDS011;45558;37.752;-97.822;2024-02-26T06:27:44;10.27;;;1.25;;
58460;SDS011;45558;37.752;-97.822;2024-02-26T06:30:09;5.85;;;0.90;;
58460;SDS011;45558;37.752;-97.822;2024-02-26T06:32:36;3.55;;;0.90;;
58460;SDS011;45558;37.752;-97.822;2024-02-26T06:35:02;5.18;;;1.88;;
58460;SDS011;45558;37.752;-97.822;2024-02-26T06:37:34;4.57;;;0.95;;
58460;SDS011;45558;37.752;-97.822;2024-02-26T06:40:00;9.20;;;1.52;;
58460;SDS011;45558;37.752;-97.822;2024-02-26T06:42:29;2.80;;;0.70;;
58460;SDS011;45558;37.752;-97.822;2024-02-26T06:44:55;7.03;;;0.80;;
58460;SDS011;45558;37.752;-97.822;2024-02-26T06:47:21;8.85;;;1.27;;
58460;SDS011;45558;37.752;-97.822;2024-02-26T06:49:47;7.88;;;0.88;;
58460;SDS011;45558;37.752;-97.822;2024-02-26T06:52:13;11.95;;;1.20;;
58460;SDS011;45558;37.752;-97.822;2024-02-26T06:54:38;3.33;;;0.70;;
58460;SDS011;45558;37.752;-97.822;2024-02-26T06:57:04;6.70;;;1.33;;
58460;SDS011;45558;37.752;-97.822;2024-02-26T06:59:30;9.52;;;1.00;;
58460;SDS011;45558;37.752;-97.822;2024-02-26T07:01:56;8.57;;;0.98;;
58460;SDS011;45558;37.752;-97.822;2024-02-26T07:04:22;4.68;;;0.82;;
58460;SDS011;45558;37.752;-97.822;2024-02-26T07:10:09;5.30;;;1.95;;
58460;SDS011;45558;37.752;-97.822;2024-02-26T07:12:37;6.65;;;1.10;;
58460;SDS011;45558;37.752;-97.822;2024-02-26T07:15:03;5.40;;;0.93;;
58460;SDS011;45558;37.752;-97.822;2024-02-26T07:17:32;7.32;;;1.40;;
58460;SDS011;45558;37.752;-97.822;2024-02-26T07:19:59;8.00;;;1.50;;
58460;SDS011;45558;37.752;-97.822;2024-02-26T07:22:25;5.47;;;0.88;;
58460;SDS011;45558;37.752;-97.822;2024-02-26T07:24:51;5.65;;;1.00;;
58460;SDS011;45558;37.752;-97.822;2024-02-26T07:27:20;5.10;;;1.20;;
58460;SDS011;45558;37.752;-97.822;2024-02-26T07:29:46;12.13;;;1.35;;
58460;SDS011;45558;37.752;-97.822;2024-02-26T07:32:12;8.05;;;1.77;;
58460;SDS011;45558;37.752;-97.822;2024-02-26T07:34:38;5.05;;;0.90;;
58460;SDS011;45558;37.752;-97.822;2024-02-26T07:37:10;7.55;;;1.85;;
58460;SDS011;45558;37.752;-97.822;2024-02-26T07:39:39;17.73;;;10.77;;
58460;SDS011;45558;37.752;-97.822;2024-02-26T07:42:05;6.05;;;1.00;;
58460;SDS011;45558;37.752;-97.822;2024-02-26T07:44:31;5.38;;;1.27;;
58460;SDS011;45558;37.752;-97.822;2024-02-26T07:46:57;5.40;;;0.90;;
58460;SDS011;45558;37.752;-97.822;2024-02-26T07:49:23;8.18;;;1.25;;
58460;SDS011;45558;37.752;-97.822;2024-02-26T07:51:49;9.85;;;1.67;;
58460;SDS011;45558;37.752;-97.822;2024-02-26T07:54:16;4.18;;;0.93;;
58460;SDS011;45558;37.752;-97.822;2024-02-26T07:56:45;8.95;;;1.38;;
58460;SDS011;45558;37.752;-97.822;2024-02-26T07:59:12;7.65;;;1.40;;
58460;SDS011;45558;37.752;-97.822;2024-02-26T08:01:39;2.60;;;1.05;;
58460;SDS011;45558;37.752;-97.822;2024-02-26T08:04:06;7.35;;;1.80;;
58460;SDS011;45558;37.752;-97.822;2024-02-26T08:06:32;6.82;;;1.08;;
58460;SDS011;45558;37.752;-97.822;2024-02-26T08:08:58;8.63;;;2.28;;
58460;SDS011;45558;37.752;-97.822;2024-02-26T08:11:24;9.30;;;1.75;;
58460;SDS011;45558;37.752;-97.822;2024-02-26T08:13:49;6.22;;;1.27;;
58460;SDS011;45558;37.752;-97.822;2024-02-26T08:16:15;36.72;;;16.17;;
58460;SDS011;45558;37.752;-97.822;2024-02-26T08:18:41;32.30;;;13.73;;
58460;SDS011;45558;37.752;-97.822;2024-02-26T08:21:07;36.03;;;12.63;;
58460;SDS011;45558;37.752;-97.822;2024-02-26T08:23:34;30.10;;;11.25;;
58460;SDS011;45558;37.752;-97.822;2024-02-26T08:26:01;8.15;;;4.18;;
58460;SDS011;45558;37.752;-97.822;2024-02-26T08:28:26;4.80;;;1.00;;
58460;SDS011;45558;37.752;-97.822;2024-02-26T08:30:52;7.18;;;1.02;;
58460;SDS011;45558;37.752;-97.822;2024-02-26T08:33:18;3.53;;;0.80;;
58460;SDS011;45558;37.752;-97.822;2024-02-26T08:35:43;7.07;;;0.82;;
58460;SDS011;45558;37.752;-97.822;2024-02-26T08:38:09;6.57;;;1.10;;
58460;SDS011;45558;37.752;-97.822;2024-02-26T08:40:35;13.95;;;2.15;;
58460;SDS011;45558;37.752;-97.822;2024-02-26T08:43:02;4.35;;;0.70;;
58460;SDS011;45558;37.752;-97.822;2024-02-26T08:45:27;7.13;;;0.60;;
58460;SDS011;45558;37.752;-97.822;2024-02-26T08:47:53;6.18;;;0.60;;
58460;SDS011;45558;37.752;-97.822;2024-02-26T08:50:19;6.38;;;0.70;;
58460;SDS011;45558;37.752;-97.822;2024-02-26T08:52:45;4.00;;;0.60;;
58460;SDS011;45558;37.752;-97.822;2024-02-26T08:55:15;4.32;;;1.00;;
58460;SDS011;45558;37.752;-97.822;2024-02-26T08:57:41;3.50;;;0.52;;
58460;SDS011;45558;37.752;-97.822;2024-02-26T09:00:07;12.55;;;0.90;;
58460;SDS011;45558;37.752;-97.822;2024-02-26T09:02:36;3.80;;;0.77;;
58460;SDS011;45558;37.752;-97.822;2024-02-26T09:05:04;5.63;;;0.82;;
58460;SDS011;45558;37.752;-97.822;2024-02-26T09:07:31;2.63;;;0.40;;
58460;SDS011;45558;37.752;-97.822;2024-02-26T09:09:57;6.63;;;0.50;;
58460;SDS011;45558;37.752;-97.822;2024-02-26T09:12:23;4.82;;;0.40;;
58460;SDS011;45558;37.752;-97.822;2024-02-26T09:14:49;4.38;;;0.50;;
58460;SDS011;45558;37.752;-97.822;2024-02-26T09:20:36;4.78;;;0.47;;
58460;SDS011;45558;37.752;-97.822;2024-02-26T09:23:02;7.45;;;0.90;;
58460;SDS011;45558;37.752;-97.822;2024-02-26T09:25:28;6.75;;;0.75;;
58460;SDS011;45558;37.752;-97.822;2024-02-26T09:27:54;1.25;;;0.40;;
58460;SDS011;45558;37.752;-97.822;2024-02-26T09:30:20;8.75;;;0.45;;
58460;SDS011;45558;37.752;-97.822;2024-02-26T09:32:46;3.05;;;0.40;;
58460;SDS011;45558;37.752;-97.822;2024-02-26T09:35:13;1.70;;;0.38;;
58460;SDS011;45558;37.752;-97.822;2024-02-26T09:37:39;7.53;;;0.68;;
58460;SDS011;45558;37.752;-97.822;2024-02-26T09:40:06;7.47;;;0.93;;
58460;SDS011;45558;37.752;-97.822;2024-02-26T09:42:32;10.30;;;0.90;;
58460;SDS011;45558;37.752;-97.822;2024-02-26T09:45:00;3.72;;;0.60;;
58460;SDS011;45558;37.752;-97.822;2024-02-26T09:47:29;7.60;;;0.80;;
58460;SDS011;45558;37.752;-97.822;2024-02-26T09:49:57;5.38;;;1.08;;
58460;SDS011;45558;37.752;-97.822;2024-02-26T09:52:25;7.50;;;0.50;;
58460;SDS011;45558;37.752;-97.822;2024-02-26T09:54:51;6.28;;;0.63;;
58460;SDS011;45558;37.752;-97.822;2024-02-26T09:57:18;3.72;;;0.50;;
58460;SDS011;45558;37.752;-97.822;2024-02-26T09:59:46;5.95;;;0.80;;
58460;SDS011;45558;37.752;-97.822;2024-02-26T10:02:14;1.20;;;0.32;;
58460;SDS011;45558;37.752;-97.822;2024-02-26T10:04:42;7.75;;;0.60;;
58460;SDS011;45558;37.752;-97.822;2024-02-26T10:07:11;6.40;;;0.55;;
58460;SDS011;45558;37.752;-97.822;2024-02-26T10:09:38;1.10;;;0.30;;
58460;SDS011;45558;37.752;-97.822;2024-02-26T10:12:06;1.92;;;0.40;;
58460;SDS011;45558;37.752;-97.822;2024-02-26T10:14:34;4.13;;;0.40;;
58460;SDS011;45558;37.752;-97.822;2024-02-26T10:20:23;8.68;;;0.55;;
58460;SDS011;45558;37.752;-97.822;2024-02-26T10:22:51;6.03;;;0.40;;
58460;SDS011;45558;37.752;-97.822;2024-02-26T10:25:17;3.40;;;0.43;;
58460;SDS011;45558;37.752;-97.822;2024-02-26T10:27:45;3.25;;;0.70;;
58460;SDS011;45558;37.752;-97.822;2024-02-26T10:30:18;5.47;;;1.23;;
58460;SDS011;45558;37.752;-97.822;2024-02-26T10:32:46;6.38;;;0.80;;
58460;SDS011;45558;37.752;-97.822;2024-02-26T10:35:14;5.10;;;1.10;;
58460;SDS011;45558;37.752;-97.822;2024-02-26T10:37:40;5.80;;;0.60;;
58460;SDS011;45558;37.752;-97.822;2024-02-26T10:40:10;2.95;;;0.63;;
58460;SDS011;45558;37.752;-97.822;2024-02-26T10:42:37;6.85;;;0.95;;
58460;SDS011;45558;37.752;-97.822;2024-02-26T10:45:07;9.95;;;1.73;;
58460;SDS011;45558;37.752;-97.822;2024-02-26T10:47:34;7.80;;;0.70;;
58460;SDS011;45558;37.752;-97.822;2024-02-26T10:50:01;6.10;;;0.70;;
58460;SDS011;45558;37.752;-97.822;2024-02-26T10:52:28;3.55;;;0.40;;
58460;SDS011;45558;37.752;-97.822;2024-02-26T10:55:02;8.40;;;0.90;;
58460;SDS011;45558;37.752;-97.822;2024-02-26T10:57:32;4.53;;;1.00;;
58460;SDS011;45558;37.752;-97.822;2024-02-26T11:00:00;6.75;;;1.20;;
58460;SDS011;45558;37.752;-97.822;2024-02-26T11:02:30;2.03;;;0.65;;
58460;SDS011;45558;37.752;-97.822;2024-02-26T11:05:01;7.28;;;0.90;;
58460;SDS011;45558;37.752;-97.822;2024-02-26T11:07:31;6.70;;;1.55;;
58460;SDS011;45558;37.752;-97.822;2024-02-26T11:10:02;6.60;;;0.82;;
58460;SDS011;45558;37.752;-97.822;2024-02-26T11:12:29;7.68;;;2.50;;
58460;SDS011;45558;37.752;-97.822;2024-02-26T11:14:55;4.13;;;1.25;;
58460;SDS011;45558;37.752;-97.822;2024-02-26T11:17:23;8.13;;;0.80;;
58460;SDS011;45558;37.752;-97.822;2024-02-26T11:19:53;3.83;;;0.80;;
58460;SDS011;45558;37.752;-97.822;2024-02-26T11:22:21;8.60;;;1.02;;
58460;SDS011;45558;37.752;-97.822;2024-02-26T11:24:51;7.15;;;0.80;;
58460;SDS011;45558;37.752;-97.822;2024-02-26T11:30:42;7.30;;;0.90;;
58460;SDS011;45558;37.752;-97.822;2024-02-26T11:33:10;6.53;;;1.95;;
58460;SDS011;45558;37.752;-97.822;2024-02-26T11:35:37;6.43;;;0.88;;
58460;SDS011;45558;37.752;-97.822;2024-02-26T11:38:04;5.88;;;1.50;;
58460;SDS011;45558;37.752;-97.822;2024-02-26T11:40:31;9.20;;;0.95;;
58460;SDS011;45558;37.752;-97.822;2024-02-26T11:42:57;7.63;;;1.13;;
58460;SDS011;45558;37.752;-97.822;2024-02-26T11:50:38;7.22;;;0.70;;
58460;SDS011;45558;37.752;-97.822;2024-02-26T11:53:46;4.20;;;1.13;;
58460;SDS011;45558;37.752;-97.822;2024-02-26T11:58:42;4.78;;;0.73;;
58460;SDS011;45558;37.752;-97.822;2024-02-26T12:06:54;6.30;;;1.00;;
58460;SDS011;45558;37.752;-97.822;2024-02-26T12:12:01;32.28;;;3.63;;
58460;SDS011;45558;37.752;-97.822;2024-02-26T12:14:28;4.05;;;0.93;;
58460;SDS011;45558;37.752;-97.822;2024-02-26T12:16:55;6.53;;;0.55;;
58460;SDS011;45558;37.752;-97.822;2024-02-26T12:19:21;4.88;;;0.52;;
58460;SDS011;45558;37.752;-97.822;2024-02-26T12:21:51;4.35;;;0.52;;
58460;SDS011;45558;37.752;-97.822;2024-02-26T12:24:17;3.80;;;0.30;;
58460;SDS011;45558;37.752;-97.822;2024-02-26T12:26:43;1.95;;;0.35;;
58460;SDS011;45558;37.752;-97.822;2024-02-26T12:29:10;6.13;;;0.82;;
58460;SDS011;45558;37.752;-97.822;2024-02-26T12:31:36;3.67;;;0.50;;
58460;SDS011;45558;37.752;-97.822;2024-02-26T12:34:03;9.35;;;0.55;;
58460;SDS011;45558;37.752;-97.822;2024-02-26T12:36:31;3.90;;;0.40;;
58460;SDS011;45558;37.752;-97.822;2024-02-26T12:38:59;3.78;;;0.68;;
58460;SDS011;45558;37.752;-97.822;2024-02-26T12:41:27;9.98;;;0.90;;
58460;SDS011;45558;37.752;-97.822;2024-02-26T12:43:53;5.50;;;0.40;;
58460;SDS011;45558;37.752;-97.822;2024-02-26T12:46:19;6.63;;;1.05;;
58460;SDS011;45558;37.752;-97.822;2024-02-26T12:48:46;7.90;;;0.40;;
58460;SDS011;45558;37.752;-97.822;2024-02-26T12:51:12;5.95;;;0.43;;
58460;SDS011;45558;37.752;-97.822;2024-02-26T12:53:40;2.22;;;0.40;;
58460;SDS011;45558;37.752;-97.822;2024-02-26T12:56:08;4.80;;;0.50;;
58460;SDS011;45558;37.752;-97.822;2024-02-26T12:58:35;16.27;;;0.93;;
58460;SDS011;45558;37.752;-97.822;2024-02-26T13:01:03;2.17;;;0.40;;
58460;SDS011;45558;37.752;-97.822;2024-02-26T13:03:30;3.55;;;0.68;;
58460;SDS011;45558;37.752;-97.822;2024-02-26T13:09:18;2.55;;;0.80;;
58460;SDS011;45558;37.752;-97.822;2024-02-26T13:11:44;2.38;;;0.50;;
58460;SDS011;45558;37.752;-97.822;2024-02-26T13:14:22;7.88;;;1.20;;
58460;SDS011;45558;37.752;-97.822;2024-02-26T13:16:55;1.67;;;0.30;;
58460;SDS011;45558;37.752;-97.822;2024-02-26T13:19:22;1.73;;;0.55;;
58460;SDS011;45558;37.752;-97.822;2024-02-26T13:21:47;2.75;;;0.85;;
58460;SDS011;45558;37.752;-97.822;2024-02-26T13:24:13;3.33;;;1.20;;
58460;SDS011;45558;37.752;-97.822;2024-02-26T13:26:39;8.27;;;1.27;;
58460;SDS011;45558;37.752;-97.822;2024-02-26T13:29:05;5.47;;;0.80;;
58460;SDS011;45558;37.752;-97.822;2024-02-26T13:31:31;3.67;;;1.05;;
58460;SDS011;45558;37.752;-97.822;2024-02-26T13:34:04;1.15;;;0.50;;
58460;SDS011;45558;37.752;-97.822;2024-02-26T13:36:30;5.63;;;1.45;;
58460;SDS011;45558;37.752;-97.822;2024-02-26T13:38:56;10.52;;;1.52;;
58460;SDS011;45558;37.752;-97.822;2024-02-26T13:41:22;3.35;;;1.30;;
58460;SDS011;45558;37.752;-97.822;2024-02-26T13:43:48;5.32;;;1.00;;
58460;SDS011;45558;37.752;-97.822;2024-02-26T13:46:15;2.25;;;0.50;;
58460;SDS011;45558;37.752;-97.822;2024-02-26T13:48:42;1.67;;;0.47;;
58460;SDS011;45558;37.752;-97.822;2024-02-26T13:51:08;1.98;;;0.90;;
58460;SDS011;45558;37.752;-97.822;2024-02-26T13:53:34;3.35;;;1.20;;
58460;SDS011;45558;37.752;-97.822;2024-02-26T13:56:00;4.53;;;0.80;;
58460;SDS011;45558;37.752;-97.822;2024-02-26T13:58:26;1.63;;;0.73;;
58460;SDS011;45558;37.752;-97.822;2024-02-26T14:00:53;4.38;;;0.40;;
58460;SDS011;45558;37.752;-97.822;2024-02-26T14:03:22;5.15;;;1.20;;
58460;SDS011;45558;37.752;-97.822;2024-02-26T14:05:48;5.40;;;0.70;;
58460;SDS011;45558;37.752;-97.822;2024-02-26T14:08:14;3.85;;;0.60;;
58460;SDS011;45558;37.752;-97.822;2024-02-26T14:10:40;1.92;;;0.50;;
58460;SDS011;45558;37.752;-97.822;2024-02-26T14:13:06;1.20;;;0.30;;
58460;SDS011;45558;37.752;-97.822;2024-02-26T14:15:32;2.85;;;0.40;;
58460;SDS011;45558;37.752;-97.822;2024-02-26T14:18:00;3.95;;;0.50;;
58460;SDS011;45558;37.752;-97.822;2024-02-26T14:20:29;4.22;;;0.45;;
58460;SDS011;45558;37.752;-97.822;2024-02-26T14:22:54;3.15;;;0.43;;
58460;SDS011;45558;37.752;-97.822;2024-02-26T14:25:20;2.00;;;0.40;;
58460;SDS011;45558;37.752;-97.822;2024-02-26T14:27:47;2.65;;;0.43;;
58460;SDS011;45558;37.752;-97.822;2024-02-26T14:30:13;5.13;;;0.30;;
58460;SDS011;45558;37.752;-97.822;2024-02-26T14:32:39;2.70;;;1.02;;
58460;SDS011;45558;37.752;-97.822;2024-02-26T14:35:06;2.70;;;0.95;;
58460;SDS011;45558;37.752;-97.822;2024-02-26T14:37:32;3.50;;;0.47;;
58460;SDS011;45558;37.752;-97.822;2024-02-26T14:39:58;2.88;;;1.35;;
58460;SDS011;45558;37.752;-97.822;2024-02-26T14:42:24;7.60;;;1.85;;
58460;SDS011;45558;37.752;-97.822;2024-02-26T14:44:50;2.22;;;0.45;;
58460;SDS011;45558;37.752;-97.822;2024-02-26T14:47:16;3.22;;;0.80;;
58460;SDS011;45558;37.752;-97.822;2024-02-26T14:49:42;2.67;;;0.57;;
58460;SDS011;45558;37.752;-97.822;2024-02-26T14:52:08;3.08;;;1.27;;
58460;SDS011;45558;37.752;-97.822;2024-02-26T14:54:34;10.80;;;3.05;;
58460;SDS011;45558;37.752;-97.822;2024-02-26T15:00:25;38.08;;;10.77;;
58460;SDS011;45558;37.752;-97.822;2024-02-26T15:02:51;10.10;;;3.03;;
58460;SDS011;45558;37.752;-97.822;2024-02-26T15:05:19;44.75;;;12.57;;
58460;SDS011;45558;37.752;-97.822;2024-02-26T15:07:45;67.18;;;19.38;;